Time;durP1;ratioP1;P1;durP2;ratioP2;P2;SDS_P1;SDS_P2;PMS_P1;PMS_P2;Temp;Humidity;BMP_temperature;BMP_pressure;BME280_temperature;BME280_humidity;BME280_pressure;Samples;Min_cycle;Max_cycle;Signal;HPM_P1;HPM_P2
2022/01/13 00:01:25;;;;;;;;;31.00;23.25;;;;;5.75;85.31;103868.28;4974045;28;45468;-70
2022/01/13 00:03:50;;;;;;;;;28.50;24.75;;;;;5.73;86.06;103866.47;4975099;28;45584;-70
2022/01/13 00:06:16;;;;;;;;;33.00;20.25;;;;;5.84;85.51;103878.06;4975054;28;45570;-70
2022/01/13 00:08:42;;;;;;;;;21.00;19.00;;;;;5.75;85.52;103857.84;4973928;28;45540;-70
2022/01/13 00:11:07;;;;;;;;;26.00;19.00;;;;;5.84;85.71;103877.19;4971145;28;45592;-70
2022/01/13 00:13:45;;;;;;;;;28.50;24.25;;;;;5.74;85.17;103863.00;4975066;28;45577;-70
2022/01/13 00:16:37;;;;;;;;;28.25;20.75;;;;;5.80;85.62;103860.59;4975522;28;45489;-70
2022/01/13 00:19:20;;;;;;;;;20.50;16.00;;;;;5.82;85.29;103866.72;4981677;28;47123;-71
2022/01/13 00:24:14;;;;;;;;;22.00;15.50;;;;;5.72;85.89;103856.88;4977080;28;45326;-70
2022/01/13 00:26:40;;;;;;;;;28.00;19.75;;;;;5.70;85.55;103846.41;4972827;28;45341;-70
2022/01/13 00:29:07;;;;;;;;;27.00;16.00;;;;;5.83;85.97;103870.22;4970934;28;45515;-70
2022/01/13 00:31:35;;;;;;;;;25.25;16.75;;;;;5.83;85.76;103865.88;5053684;28;45701;-71
2022/01/13 00:34:04;;;;;;;;;20.50;14.25;;;;;5.71;86.04;103849.91;5053447;28;45568;-70
2022/01/13 00:36:35;;;;;;;;;23.25;13.00;;;;;5.78;85.14;103871.81;5052646;28;45503;-70
2022/01/13 00:39:01;;;;;;;;;21.50;16.00;;;;;5.75;85.83;103876.13;5054507;28;45458;-70
2022/01/13 00:41:29;;;;;;;;;25.00;17.75;;;;;5.74;85.98;103870.84;5067560;28;45395;-70
2022/01/13 00:44:00;;;;;;;;;22.50;13.50;;;;;5.73;85.80;103869.06;5057237;28;45330;-70
2022/01/13 00:46:30;;;;;;;;;20.00;16.25;;;;;5.68;86.15;103868.94;5062163;28;45395;-70
2022/01/13 00:48:58;;;;;;;;;23.25;16.25;;;;;5.67;86.27;103863.69;5057949;28;46136;-70
2022/01/13 00:51:24;;;;;;;;;20.25;13.50;;;;;5.67;85.97;103861.09;5057804;28;45965;-70
2022/01/13 00:53:50;;;;;;;;;17.25;15.50;;;;;5.67;86.29;103859.34;5057980;27;45422;-70
2022/01/13 00:56:16;;;;;;;;;18.00;13.75;;;;;5.68;86.45;103871.56;5051940;28;45415;-70
2022/01/13 00:58:43;;;;;;;;;17.50;15.25;;;;;5.68;86.34;103871.56;5067320;28;45962;-70
2022/01/13 01:01:08;;;;;;;;;14.75;13.25;;;;;5.64;86.10;103858.41;5056184;28;45525;-70
2022/01/13 01:03:36;;;;;;;;;18.50;13.50;;;;;5.63;86.22;103859.22;5052506;28;45567;-70
2022/01/13 01:06:03;;;;;;;;;19.50;18.00;;;;;5.56;86.16;103866.00;5056095;28;45455;-70
2022/01/13 01:08:30;;;;;;;;;21.25;15.75;;;;;5.51;86.16;103862.38;5054837;28;46067;-70
2022/01/13 01:10:57;;;;;;;;;19.75;13.00;;;;;5.48;87.24;103865.81;5056343;28;50074;-70
2022/01/13 01:13:27;;;;;;;;;17.75;13.00;;;;;5.48;86.75;103871.03;5057450;28;45370;-70
2022/01/13 01:15:55;;;;;;;;;19.25;10.25;;;;;5.41;86.60;103860.34;5053544;28;45830;-70
2022/01/13 01:18:33;;;;;;;;;18.50;14.75;;;;;5.43;86.52;103869.13;5053034;28;45506;-70
2022/01/13 01:23:36;;;;;;;;;14.25;9.50;;;;;5.33;86.41;103861.88;5053242;28;45397;-70
2022/01/13 01:26:19;;;;;;;;;15.50;10.75;;;;;5.35;86.56;103868.00;5052922;28;45408;-70
2022/01/13 01:28:49;;;;;;;;;17.25;11.50;;;;;5.30;86.66;103864.38;5054182;28;45414;-70
2022/01/13 01:31:15;;;;;;;;;11.00;10.50;;;;;5.26;86.94;103870.34;5052831;28;45768;-70
2022/01/13 01:33:49;;;;;;;;;21.25;15.25;;;;;5.28;87.25;103877.38;5053460;28;45360;-70
2022/01/13 01:36:16;;;;;;;;;16.50;14.25;;;;;5.27;87.26;103875.59;5050605;28;46327;-70
2022/01/13 01:38:46;;;;;;;;;17.50;12.00;;;;;5.23;86.93;103869.44;5052294;28;45626;-70
2022/01/13 01:41:11;;;;;;;;;14.75;11.25;;;;;5.18;87.30;103865.81;5053052;28;45469;-70
2022/01/13 01:43:36;;;;;;;;;30.25;17.75;;;;;5.18;87.14;103871.00;5054895;28;45568;-70
2022/01/13 01:46:02;;;;;;;;;16.75;10.25;;;;;5.17;87.30;103871.88;5053050;28;45379;-70
2022/01/13 01:48:29;;;;;;;;;27.00;15.50;;;;;5.15;87.89;103875.25;5054426;28;45827;-70
2022/01/13 01:50:58;;;;;;;;;17.50;13.00;;;;;5.02;87.52;103844.44;5052209;28;45432;-70
2022/01/13 01:53:24;;;;;;;;;13.75;13.00;;;;;5.03;87.98;103869.69;5041505;28;45560;-70
2022/01/13 01:55:53;;;;;;;;;21.25;12.50;;;;;5.07;88.33;103872.44;5054009;28;45338;-70
2022/01/13 01:58:18;;;;;;;;;18.25;15.75;;;;;5.11;88.13;103878.59;5053363;28;45503;-70
2022/01/13 02:00:43;;;;;;;;;17.25;14.25;;;;;5.13;88.02;103877.81;5052696;28;45383;-70
2022/01/13 02:03:09;;;;;;;;;17.00;14.00;;;;;5.14;88.03;103886.53;5052658;28;45472;-70
2022/01/13 02:05:35;;;;;;;;;22.25;15.25;;;;;5.10;87.82;103885.53;5052689;28;45437;-70
2022/01/13 02:08:01;;;;;;;;;15.75;11.75;;;;;5.06;87.96;103875.84;5052166;28;46243;-70
2022/01/13 02:10:27;;;;;;;;;15.25;9.50;;;;;5.08;87.98;103878.53;5050607;28;45946;-70
2022/01/13 02:13:00;;;;;;;;;13.25;12.25;;;;;5.02;88.34;103875.72;5052423;28;45387;-70
2022/01/13 02:15:32;;;;;;;;;12.75;11.00;;;;;5.01;87.51;103876.53;5052859;28;45470;-70
2022/01/13 02:17:59;;;;;;;;;18.75;13.00;;;;;4.96;87.85;103884.25;5056399;28;45501;-70
2022/01/13 02:20:40;;;;;;;;;13.00;11.25;;;;;4.92;87.62;103887.59;5052505;28;45425;-71
2022/01/13 02:23:05;;;;;;;;;19.50;12.50;;;;;4.91;88.10;103891.03;5051994;28;45490;-70
2022/01/13 02:25:30;;;;;;;;;15.00;10.33;;;;;4.79;87.35;103881.09;5054420;28;45359;-70
2022/01/13 02:27:56;;;;;;;;;17.50;14.75;;;;;4.71;87.34;103875.66;5039584;28;45280;-70
2022/01/13 02:30:21;;;;;;;;;13.33;8.33;;;;;4.79;87.57;103896.72;5051846;28;45407;-70
2022/01/13 02:32:46;;;;;;;;;15.50;12.25;;;;;4.78;87.77;103891.47;5052431;28;45422;-70
2022/01/13 02:35:12;;;;;;;;;14.00;11.00;;;;;4.71;87.58;103880.88;5052184;28;47776;-70
2022/01/13 02:37:37;;;;;;;;;11.25;7.75;;;;;4.72;87.74;103884.34;5053713;28;45352;-70
2022/01/13 02:40:03;;;;;;;;;18.25;12.25;;;;;4.68;87.72;103882.47;5052173;28;45509;-70
2022/01/13 02:42:29;;;;;;;;;15.50;12.75;;;;;4.65;87.85;103882.41;5049407;28;45518;-70
2022/01/13 02:45:02;;;;;;;;;14.00;14.00;;;;;4.63;87.96;103878.84;5050303;28;45422;-70
2022/01/13 02:48:11;;;;;;;;;16.00;13.00;;;;;4.62;88.22;103871.88;5055384;28;45469;-70
2022/01/13 02:50:14;;;;;;;;;17.75;13.50;;;;;4.64;87.78;103871.06;5048016;28;45383;-70
2022/01/13 02:52:40;;;;;;;;;15.25;8.75;;;;;4.61;88.03;103868.38;5057083;28;45419;-70
2022/01/13 02:55:07;;;;;;;;;14.75;11.00;;;;;4.67;88.42;103880.72;5055833;28;45635;-70
2022/01/13 02:57:33;;;;;;;;;13.50;12.25;;;;;4.67;88.38;103880.72;5055335;28;45617;-70
2022/01/13 02:59:59;;;;;;;;;12.00;11.00;;;;;4.70;88.16;103873.00;5051357;28;45479;-70
2022/01/13 03:02:30;;;;;;;;;15.75;10.50;;;;;4.74;87.78;103871.38;5055860;28;45291;-70
2022/01/13 03:04:55;;;;;;;;;21.50;15.50;;;;;4.73;88.05;103875.69;5056441;28;45395;-70
2022/01/13 03:07:21;;;;;;;;;16.25;14.75;;;;;4.74;87.89;103872.25;5058544;28;46151;-70
2022/01/13 03:09:46;;;;;;;;;18.50;13.75;;;;;4.63;88.03;103853.69;5058431;28;45463;-70
2022/01/13 03:12:12;;;;;;;;;16.50;12.25;;;;;4.71;88.07;103874.78;5055123;28;45486;-70
2022/01/13 03:14:38;;;;;;;;;22.00;14.00;;;;;4.71;87.76;103872.19;5066954;28;45535;-70
2022/01/13 03:17:03;;;;;;;;;19.25;15.00;;;;;4.67;87.43;103865.09;5054875;28;46053;-70
2022/01/13 03:19:29;;;;;;;;;15.50;12.00;;;;;4.68;87.96;103870.34;5054207;28;45333;-70
2022/01/13 03:21:54;;;;;;;;;17.25;11.00;;;;;4.68;88.12;103864.25;5054856;28;45441;-70
2022/01/13 03:24:19;;;;;;;;;13.50;10.00;;;;;4.66;87.85;103859.00;5054969;28;45279;-70
2022/01/13 03:26:47;;;;;;;;;17.33;10.33;;;;;4.69;87.60;103866.00;5054513;28;56345;-69
2022/01/13 03:31:38;;;;;;;;;13.50;8.75;;;;;4.67;87.53;103867.69;5056801;28;45916;-71
2022/01/13 03:34:04;;;;;;;;;12.00;8.75;;;;;4.64;87.49;103872.78;5053694;28;45630;-71
2022/01/13 03:36:29;;;;;;;;;14.75;12.00;;;;;4.57;87.41;103868.22;5050417;28;50719;-70
2022/01/13 03:38:55;;;;;;;;;17.00;12.00;;;;;4.50;87.60;103877.59;5057870;28;45580;-70
2022/01/13 03:41:21;;;;;;;;;8.00;8.00;;;;;4.47;87.84;103867.06;5035915;28;46016;-70
2022/01/13 03:43:50;;;;;;;;;9.25;8.00;;;;;4.45;87.43;103868.72;5056567;28;45658;-70
2022/01/13 03:46:15;;;;;;;;;14.00;11.25;;;;;4.42;87.50;103866.91;5053721;28;45331;-71
2022/01/13 03:48:41;;;;;;;;;14.50;9.25;;;;;4.36;87.42;103871.91;5053816;28;45571;-71
2022/01/13 03:51:08;;;;;;;;;11.00;9.00;;;;;4.36;87.46;103877.13;5054577;28;45734;-69
2022/01/13 03:54:11;;;;;;;;;13.50;9.00;;;;;4.33;87.51;103870.91;5048427;28;45499;-70
2022/01/13 03:56:42;;;;;;;;;8.75;8.00;;;;;4.34;87.50;103872.72;5021838;28;46134;-71
2022/01/13 03:59:35;;;;;;;;;14.75;9.75;;;;;4.34;87.67;103870.97;5054481;28;45434;-70
2022/01/13 04:02:10;;;;;;;;;16.50;11.25;;;;;4.37;87.95;103875.41;5052747;28;45398;-70
2022/01/13 04:04:40;;;;;;;;;14.25;11.25;;;;;4.39;87.78;103863.31;5055273;28;45519;-71
2022/01/13 04:07:09;;;;;;;;;15.00;11.25;;;;;4.41;88.38;103869.47;5054025;28;45670;-71
2022/01/13 04:09:35;;;;;;;;;11.25;9.50;;;;;4.40;88.04;103865.09;5051308;28;45536;-71
2022/01/13 04:12:04;;;;;;;;;12.00;10.67;;;;;4.39;87.67;103874.63;5049933;28;45435;-71
2022/01/13 04:14:46;;;;;;;;;17.75;10.25;;;;;4.38;88.13;103878.03;5054963;28;45275;-71
2022/01/13 04:17:19;;;;;;;;;10.00;8.00;;;;;4.37;88.01;103878.88;5054062;28;46046;-71
2022/01/13 04:19:48;;;;;;;;;11.00;8.00;;;;;4.36;88.01;103873.63;5052050;28;45895;-71
2022/01/13 04:22:15;;;;;;;;;10.50;8.75;;;;;4.31;87.75;103865.66;5054174;28;45470;-71
2022/01/13 04:24:49;;;;;;;;;14.25;8.75;;;;;4.22;87.93;103854.94;5053943;28;45516;-71
2022/01/13 04:27:29;;;;;;;;;12.25;11.00;;;;;4.29;87.97;103866.47;5053631;28;45382;-71
2022/01/13 04:32:39;;;;;;;;;16.25;10.50;;;;;4.25;88.41;103864.59;5053699;28;45515;-71
2022/01/13 04:35:06;;;;;;;;;7.50;7.50;;;;;4.23;88.36;103867.16;5054079;28;45413;-70
2022/01/13 04:37:31;;;;;;;;;8.00;8.00;;;;;4.14;88.10;103851.22;5055078;28;45323;-70
2022/01/13 04:39:57;;;;;;;;;10.25;7.25;;;;;4.13;88.37;103846.84;5054983;28;51275;-71
2022/01/13 04:42:23;;;;;;;;;12.67;11.00;;;;;4.15;88.35;103855.56;5053480;28;48064;-71
2022/01/13 04:44:48;;;;;;;;;10.00;7.75;;;;;4.23;88.55;103855.81;5053706;28;45248;-71
2022/01/13 04:47:13;;;;;;;;;12.25;10.25;;;;;4.24;87.97;103857.63;5050701;28;45614;-71
2022/01/13 04:49:38;;;;;;;;;14.50;10.00;;;;;4.27;88.40;103857.69;5054941;28;45435;-71
2022/01/13 04:52:04;;;;;;;;;12.25;10.00;;;;;4.29;88.24;103863.88;5053891;28;45597;-71
2022/01/13 04:54:29;;;;;;;;;12.75;9.25;;;;;4.33;88.21;103860.50;5053565;28;45530;-71
2022/01/13 04:57:15;;;;;;;;;18.00;8.50;;;;;4.28;88.03;103865.59;5053439;28;45598;-71
2022/01/13 04:59:41;;;;;;;;;15.00;10.00;;;;;4.30;87.99;103863.03;5053454;28;46049;-71
2022/01/13 05:02:06;;;;;;;;;13.00;8.25;;;;;4.29;87.56;103871.66;5053784;28;45303;-71
2022/01/13 05:04:31;;;;;;;;;14.33;10.00;;;;;4.28;87.71;103865.59;5044629;28;45569;-71
2022/01/13 05:06:56;;;;;;;;;9.75;8.25;;;;;4.25;87.83;103865.47;5038867;28;46123;-71
2022/01/13 05:09:22;;;;;;;;;14.67;8.67;;;;;4.06;87.85;103837.03;5059288;28;53886;-71
2022/01/13 05:11:47;;;;;;;;;11.33;9.33;;;;;4.29;88.18;103871.66;5053587;28;45292;-71
2022/01/13 05:14:12;;;;;;;;;9.75;5.00;;;;;4.27;87.61;103873.31;5052268;28;45362;-71
2022/01/13 05:16:55;;;;;;;;;11.25;11.25;;;;;4.25;88.30;103869.78;5054733;28;45376;-71
2022/01/13 05:19:26;;;;;;;;;13.25;7.25;;;;;4.25;88.48;103875.00;5054122;28;45573;-71
2022/01/13 05:24:19;;;;;;;;;12.50;9.25;;;;;4.23;88.38;103867.16;5051338;28;45451;-71
2022/01/13 05:26:45;;;;;;;;;10.75;10.75;;;;;4.19;88.50;103860.06;5053070;28;46686;-71
2022/01/13 05:29:12;;;;;;;;;11.50;8.00;;;;;4.27;88.32;103870.72;5053306;28;45333;-71
2022/01/13 05:31:38;;;;;;;;;14.25;11.50;;;;;4.21;88.84;103860.97;5054899;28;45288;-71
2022/01/13 05:34:03;;;;;;;;;15.00;10.75;;;;;4.28;88.87;103869.88;5053274;28;45480;-71
2022/01/13 05:36:28;;;;;;;;;18.00;12.00;;;;;4.27;88.44;103861.19;5052634;28;45338;-71
2022/01/13 05:38:53;;;;;;;;;15.00;10.00;;;;;4.29;88.48;103862.13;5054483;28;47092;-71
2022/01/13 05:41:19;;;;;;;;;14.75;8.00;;;;;4.29;88.23;103862.13;5052877;28;45426;-71
2022/01/13 05:43:44;;;;;;;;;11.67;8.67;;;;;4.31;88.74;103857.84;5054958;28;51159;-71
2022/01/13 05:46:09;;;;;;;;;10.67;5.67;;;;;4.31;88.24;103854.38;5051593;28;47720;-71
2022/01/13 05:48:35;;;;;;;;;14.00;9.50;;;;;4.27;88.71;103850.75;5052512;28;45510;-71
2022/01/13 05:51:01;;;;;;;;;14.00;10.25;;;;;4.30;89.28;103853.50;5052832;28;45380;-71
2022/01/13 05:53:26;;;;;;;;;9.25;8.25;;;;;4.29;88.84;103856.03;5049646;28;49734;-71
2022/01/13 05:55:52;;;;;;;;;18.00;10.25;;;;;4.28;88.87;103862.06;5054349;28;45485;-71
2022/01/13 05:58:17;;;;;;;;;16.33;11.33;;;;;4.25;89.09;103856.78;5052649;28;61546;-71
2022/01/13 06:00:43;;;;;;;;;12.00;8.75;;;;;4.28;89.02;103849.97;5049566;28;45335;-71
2022/01/13 06:03:10;;;;;;;;;13.25;7.00;;;;;4.32;88.69;103853.53;5048405;28;45376;-71
2022/01/13 06:05:35;;;;;;;;;20.75;14.75;;;;;4.35;88.66;103867.53;5052702;28;46242;-71
2022/01/13 06:08:01;;;;;;;;;11.50;9.25;;;;;4.33;88.45;103853.59;5054037;28;45334;-71
2022/01/13 06:10:26;;;;;;;;;12.50;7.00;;;;;4.26;88.22;103851.59;5052012;28;45348;-71
2022/01/13 06:12:52;;;;;;;;;14.00;9.50;;;;;4.30;88.13;103856.09;5050703;28;45586;-71
2022/01/13 06:15:21;;;;;;;;;9.00;7.00;;;;;4.26;88.07;103856.81;5051856;28;45356;-71
2022/01/13 06:17:49;;;;;;;;;10.50;7.00;;;;;4.22;88.87;103860.16;5052763;28;45420;-71
2022/01/13 06:20:16;;;;;;;;;14.00;8.75;;;;;4.21;88.65;103860.97;5052615;28;45444;-71
2022/01/13 06:22:43;;;;;;;;;8.00;6.50;;;;;4.19;88.18;103860.06;5048632;28;45406;-71
2022/01/13 06:25:10;;;;;;;;;12.00;11.25;;;;;4.13;88.34;103863.34;5053721;28;45373;-71
2022/01/13 06:27:36;;;;;;;;;18.75;10.75;;;;;4.11;88.55;103862.38;5052576;28;45407;-71
2022/01/13 06:30:03;;;;;;;;;9.75;9.00;;;;;4.08;89.19;103862.31;5044261;28;45464;-71
2022/01/13 06:32:28;;;;;;;;;11.50;7.75;;;;;4.01;88.70;103857.69;5055993;28;45326;-71
2022/01/13 06:34:54;;;;;;;;;7.25;7.25;;;;;3.97;88.50;103854.94;5057438;28;45438;-71
2022/01/13 06:37:19;;;;;;;;;13.00;9.75;;;;;4.04;88.44;103867.34;5058436;28;45273;-71
2022/01/13 06:39:46;;;;;;;;;12.75;10.50;;;;;3.98;88.51;103851.53;5056583;28;45302;-71
2022/01/13 06:42:11;;;;;;;;;12.50;8.75;;;;;4.08;88.59;103861.41;5050598;28;45500;-71
2022/01/13 06:44:37;;;;;;;;;14.25;11.50;;;;;4.10;88.92;103863.22;5055089;28;46024;-71
2022/01/13 06:47:03;;;;;;;;;18.25;11.25;;;;;4.10;88.72;103868.44;5066287;27;45601;-71
2022/01/13 06:49:29;;;;;;;;;13.25;6.00;;;;;4.10;88.59;103864.94;5060290;28;45601;-71
2022/01/13 06:51:54;;;;;;;;;14.00;8.00;;;;;4.13;88.60;103862.47;5052173;28;45613;-71
2022/01/13 06:54:19;;;;;;;;;10.33;8.00;;;;;4.12;88.74;103858.06;5050368;28;56042;-71
2022/01/13 06:56:45;;;;;;;;;13.50;10.25;;;;;4.16;88.73;103860.81;5044889;28;45585;-71
2022/01/13 06:59:12;;;;;;;;;13.50;10.25;;;;;4.11;88.68;103857.19;5054634;28;45502;-71
2022/01/13 07:01:39;;;;;;;;;18.00;11.75;;;;;4.14;88.29;103859.03;5053017;28;45627;-71
2022/01/13 07:04:05;;;;;;;;;14.00;10.50;;;;;4.12;88.43;103853.78;5043712;28;45416;-69
2022/01/13 07:06:31;;;;;;;;;9.50;8.25;;;;;4.07;88.43;103850.13;5044228;28;45508;-69
2022/01/13 07:08:56;;;;;;;;;15.25;9.25;;;;;4.10;87.95;103868.44;5048509;28;45245;-70
2022/01/13 07:11:21;;;;;;;;;12.25;8.50;;;;;4.06;88.08;103869.16;5044374;28;45456;-70
2022/01/13 07:13:47;;;;;;;;;12.67;8.67;;;;;3.99;89.61;103872.38;5064033;28;46308;-70
2022/01/13 07:16:12;;;;;;;;;21.25;11.50;;;;;4.02;88.62;103876.78;5051535;28;45758;-70
2022/01/13 07:18:40;;;;;;;;;28.33;24.00;;;;;4.04;88.80;103881.25;5045806;28;47933;-72
2022/01/13 07:21:08;;;;;;;;;10.25;8.25;;;;;4.08;88.38;103883.13;5043021;28;45466;-71
2022/01/13 07:23:33;;;;;;;;;16.25;9.25;;;;;4.01;88.83;103864.63;5040072;28;45394;-72
2022/01/13 07:25:59;;;;;;;;;9.00;9.00;;;;;4.09;88.27;103871.00;5052187;28;45573;-72
2022/01/13 07:28:24;;;;;;;;;15.75;10.75;;;;;4.06;88.72;103873.47;5041213;28;45356;-71
2022/01/13 07:30:50;;;;;;;;;10.75;8.00;;;;;4.09;88.85;103881.41;5043672;28;45414;-71
2022/01/13 07:33:15;;;;;;;;;17.00;10.00;;;;;4.09;88.57;103876.19;5046292;28;45489;-72
2022/01/13 07:35:40;;;;;;;;;11.25;8.25;;;;;4.07;89.01;103872.63;5044441;28;45626;-71
2022/01/13 07:38:06;;;;;;;;;14.00;8.00;;;;;4.12;88.88;103876.28;5038010;28;45490;-71
2022/01/13 07:40:31;;;;;;;;;7.75;7.75;;;;;3.91;88.79;103842.59;5049103;28;45369;-71
2022/01/13 07:42:56;;;;;;;;;11.75;9.75;;;;;4.12;89.09;103871.06;5048076;28;45906;-71
2022/01/13 07:45:22;;;;;;;;;11.00;9.00;;;;;4.14;89.58;103872.03;5050212;28;45241;-71
2022/01/13 07:47:47;;;;;;;;;8.67;8.67;;;;;4.17;88.83;103882.53;5041682;28;45518;-71
2022/01/13 07:50:14;;;;;;;;;12.75;12.25;;;;;4.18;89.23;103876.53;5036375;28;45454;-70
2022/01/13 07:52:39;;;;;;;;;8.75;8.00;;;;;4.21;88.96;103878.31;5049738;28;45940;-72
2022/01/13 07:55:05;;;;;;;;;11.00;11.00;;;;;4.26;89.03;103888.06;5051127;28;45732;-72
2022/01/13 07:57:30;;;;;;;;;16.50;11.50;;;;;4.28;88.53;103877.69;5044211;28;45525;-71
2022/01/13 07:59:56;;;;;;;;;12.00;10.25;;;;;4.27;88.92;103866.38;5039243;28;45532;-71
2022/01/13 08:02:22;;;;;;;;;12.25;11.25;;;;;4.28;88.32;103855.16;5047854;28;46065;-71
2022/01/13 08:04:49;;;;;;;;;17.25;16.50;;;;;4.36;88.20;103871.03;5045355;28;45416;-72
2022/01/13 08:07:15;;;;;;;;;14.50;10.25;;;;;4.36;88.46;103871.91;5063592;28;45481;-71
2022/01/13 08:09:40;;;;;;;;;13.75;9.25;;;;;4.37;88.17;103870.19;5048375;28;45541;-72
2022/01/13 08:12:06;;;;;;;;;10.75;8.50;;;;;4.35;88.07;103857.13;5049411;28;47697;-72
2022/01/13 08:14:31;;;;;;;;;17.00;11.00;;;;;4.34;88.60;103870.97;5045417;28;45416;-72
2022/01/13 08:16:59;;;;;;;;;13.25;10.75;;;;;4.35;88.35;103866.66;5029014;28;45272;-72
2022/01/13 08:22:09;;;;;;;;;14.50;10.25;;;;;4.36;87.99;103874.50;5042664;28;45455;-71
2022/01/13 08:24:35;;;;;;;;;65.50;51.00;;;;;4.34;88.13;103870.97;5047443;28;45363;-72
2022/01/13 08:27:00;;;;;;;;;14.00;9.50;;;;;4.36;88.11;103864.09;5037873;28;45813;-71
2022/01/13 08:29:26;;;;;;;;;17.50;13.50;;;;;4.37;88.11;103854.56;5037492;28;45306;-72
2022/01/13 08:31:51;;;;;;;;;20.50;14.75;;;;;4.44;88.35;103870.47;5055243;28;46096;-72
2022/01/13 08:34:16;;;;;;;;;14.75;11.25;;;;;4.45;88.47;103858.31;5042716;28;45653;-72
2022/01/13 08:36:42;;;;;;;;;15.00;12.25;;;;;4.49;88.11;103860.19;5046376;28;45398;-72
2022/01/13 08:39:08;;;;;;;;;50.75;41.25;;;;;4.50;88.01;103858.47;5052046;28;45593;-70
2022/01/13 08:41:34;;;;;;;;;14.25;12.00;;;;;4.52;87.98;103862.00;5049810;28;45308;-72
2022/01/13 08:43:59;;;;;;;;;15.75;13.75;;;;;4.57;87.96;103866.50;5044417;28;45309;-71
2022/01/13 08:46:25;;;;;;;;;20.75;13.50;;;;;4.56;87.83;103858.66;5043208;28;45295;-72
2022/01/13 08:48:52;;;;;;;;;13.75;11.75;;;;;4.60;88.15;103855.31;5041138;28;45465;-72
2022/01/13 08:51:18;;;;;;;;;20.75;11.50;;;;;4.66;88.13;103868.53;5040481;28;45288;-72
2022/01/13 08:53:45;;;;;;;;;21.50;13.00;;;;;4.70;87.92;103867.81;5039495;28;45925;-72
2022/01/13 08:56:11;;;;;;;;;26.75;18.00;;;;;4.68;87.74;103866.84;5037110;28;45379;-72
2022/01/13 08:58:37;;;;;;;;;16.25;10.75;;;;;4.77;87.84;103871.47;5047792;28;45517;-72
2022/01/13 09:01:02;;;;;;;;;13.25;11.25;;;;;4.81;87.76;103879.44;5048156;28;45878;-72
2022/01/13 09:03:27;;;;;;;;;14.50;11.75;;;;;4.81;87.40;103871.63;5042997;28;45482;-72
2022/01/13 09:05:53;;;;;;;;;92.00;69.67;;;;;4.82;87.43;103886.41;5038057;28;45452;-72
2022/01/13 09:08:18;;;;;;;;;18.00;12.50;;;;;4.82;87.44;103883.81;5053001;28;45459;-72
2022/01/13 09:10:44;;;;;;;;;16.25;11.75;;;;;4.79;87.26;103877.59;5050263;28;46146;-72
2022/01/13 09:13:14;;;;;;;;;15.50;9.50;;;;;4.81;87.08;103886.38;5053538;28;45447;-72
2022/01/13 09:15:44;;;;;;;;;20.75;15.50;;;;;4.79;87.18;103888.91;5051077;28;45509;-72
2022/01/13 09:18:15;;;;;;;;;17.50;14.25;;;;;4.80;87.06;103888.06;5043825;28;45550;-72
2022/01/13 09:20:40;;;;;;;;;17.25;12.50;;;;;4.83;87.37;103882.97;5051609;28;45952;-72
2022/01/13 09:23:06;;;;;;;;;10.00;10.00;;;;;4.83;86.76;103893.38;5058891;28;45419;-72
2022/01/13 09:25:33;;;;;;;;;16.50;12.00;;;;;4.82;87.05;103902.06;5040003;28;46149;-72
2022/01/13 09:27:58;;;;;;;;;12.50;12.00;;;;;4.83;87.02;103897.72;5046540;28;45601;-72
2022/01/13 09:30:26;;;;;;;;;19.25;14.00;;;;;4.83;86.80;103903.81;5046729;28;45340;-72
2022/01/13 09:32:52;;;;;;;;;20.00;11.50;;;;;4.84;86.94;103900.38;5050115;28;45527;-72
2022/01/13 09:35:18;;;;;;;;;18.50;13.50;;;;;4.82;86.86;103909.88;5053165;28;45724;-72
2022/01/13 09:37:43;;;;;;;;;21.50;13.50;;;;;4.82;86.35;103911.59;5050425;28;45379;-72
2022/01/13 09:40:10;;;;;;;;;16.00;12.75;;;;;4.83;86.66;103918.56;5040557;28;45770;-72
2022/01/13 09:42:40;;;;;;;;;15.00;14.00;;;;;4.87;86.18;103910.91;5038623;28;45940;-72
2022/01/13 09:45:06;;;;;;;;;11.75;7.25;;;;;4.85;86.28;103911.66;5039320;28;45367;-72
2022/01/13 09:47:33;;;;;;;;;72.75;55.75;;;;;4.85;86.03;103917.75;5034545;28;45331;-72
2022/01/13 09:50:04;;;;;;;;;20.00;14.25;;;;;4.92;85.88;103919.75;5050553;28;46140;-72
2022/01/13 09:52:29;;;;;;;;;14.50;13.50;;;;;4.90;85.71;103910.97;5022455;28;46873;-72
2022/01/13 09:54:55;;;;;;;;;17.33;14.33;;;;;4.95;85.84;103914.63;5044525;28;48044;-72
2022/01/13 09:57:21;;;;;;;;;16.25;11.75;;;;;4.96;85.16;103920.75;5046339;28;45488;-72
2022/01/13 09:59:46;;;;;;;;;16.75;13.75;;;;;4.87;85.38;103913.50;5050808;28;45902;-72
2022/01/13 10:02:11;;;;;;;;;20.00;9.75;;;;;4.92;85.29;103924.97;5040226;28;45441;-72
2022/01/13 10:04:53;;;;;;;;;13.75;12.50;;;;;4.92;85.11;103922.34;5045514;28;45553;-72
2022/01/13 10:07:36;;;;;;;;;15.25;11.50;;;;;4.96;85.70;103920.75;5048104;28;45546;-72
2022/01/13 10:10:17;;;;;;;;;24.25;18.00;;;;;4.98;85.39;103911.22;5053472;28;46178;-72
2022/01/13 10:12:44;;;;;;;;;12.25;11.75;;;;;5.02;85.34;103925.25;5047514;28;45866;-72
2022/01/13 10:17:49;;;;;;;;;15.75;9.50;;;;;5.01;85.14;103924.34;5057799;28;45414;-72
2022/01/13 10:20:17;;;;;;;;;13.25;12.25;;;;;5.03;84.63;103921.81;5051004;28;45992;-72
2022/01/13 10:22:44;;;;;;;;;15.75;9.25;;;;;5.04;84.93;103923.56;5039079;28;45464;-72
2022/01/13 10:25:26;;;;;;;;;15.25;11.00;;;;;4.97;84.73;103918.16;5039629;28;45796;-72
2022/01/13 10:27:52;;;;;;;;;12.25;11.50;;;;;5.04;84.33;103927.06;5039593;28;45645;-72
2022/01/13 10:30:18;;;;;;;;;14.75;14.00;;;;;5.06;84.37;103922.75;5040050;28;45250;-72
2022/01/13 10:32:45;;;;;;;;;15.75;12.00;;;;;5.07;84.44;103921.94;5041889;28;45982;-72
2022/01/13 10:35:15;;;;;;;;;18.25;11.00;;;;;5.10;84.52;103914.22;5040668;28;45673;-72
2022/01/13 10:38:02;;;;;;;;;22.00;13.50;;;;;5.09;84.09;103917.66;5044336;28;45545;-72
2022/01/13 10:40:34;;;;;;;;;20.50;12.00;;;;;5.16;83.88;103916.13;5051991;28;45519;-72
2022/01/13 10:45:38;;;;;;;;;12.25;9.00;;;;;5.20;83.76;103910.16;5056484;28;46731;-72
2022/01/13 10:48:22;;;;;;;;;17.50;13.50;;;;;5.27;83.58;103913.81;5055679;28;45533;-72
2022/01/13 10:50:59;;;;;;;;;16.75;13.25;;;;;5.30;83.83;103914.81;5037783;28;46462;-72
2022/01/13 10:53:29;;;;;;;;;12.00;11.25;;;;;5.32;83.91;103915.72;5053164;28;45940;-72
2022/01/13 10:56:05;;;;;;;;;18.75;14.00;;;;;5.33;83.55;103896.66;5057025;28;46021;-72
2022/01/13 10:58:36;;;;;;;;;16.50;12.00;;;;;5.37;83.32;103902.84;5054783;28;45703;-72
2022/01/13 11:01:03;;;;;;;;;24.00;15.25;;;;;5.38;83.55;103908.13;5057809;28;46904;-72
2022/01/13 11:03:31;;;;;;;;;16.00;12.75;;;;;5.42;83.21;103906.47;5048421;28;46892;-72
2022/01/13 11:05:59;;;;;;;;;16.75;12.00;;;;;5.43;83.09;103903.03;5048866;28;45493;-72
2022/01/13 11:08:42;;;;;;;;;17.75;13.00;;;;;5.44;83.08;103905.69;5050163;28;45308;-72
2022/01/13 11:11:20;;;;;;;;;15.00;13.50;;;;;5.48;83.05;103906.63;5055304;28;46100;-72
2022/01/13 11:13:54;;;;;;;;;18.00;15.00;;;;;5.44;82.96;103899.59;5064333;28;45803;-72
2022/01/13 11:16:21;;;;;;;;;18.50;13.00;;;;;5.42;82.52;103893.41;5068275;28;45576;-72
2022/01/13 11:18:46;;;;;;;;;21.00;14.50;;;;;5.37;82.48;103892.41;5056515;28;46838;-72
2022/01/13 11:21:12;;;;;;;;;18.75;16.50;;;;;5.29;82.98;103881.75;5056912;28;47068;-72
2022/01/13 11:23:38;;;;;;;;;17.25;15.50;;;;;5.39;83.14;103891.63;5061368;28;45913;-72
2022/01/13 11:26:06;;;;;;;;;19.75;12.00;;;;;5.41;82.99;103883.84;5055616;28;45671;-71
2022/01/13 11:28:34;;;;;;;;;14.75;13.00;;;;;5.42;82.80;103869.94;5059386;28;45685;-72
2022/01/13 11:31:00;;;;;;;;;17.25;13.75;;;;;5.54;82.96;103883.34;5059025;28;46248;-72
2022/01/13 11:33:26;;;;;;;;;20.00;14.00;;;;;5.62;82.89;103883.56;5060519;28;46748;-72
2022/01/13 11:35:56;;;;;;;;;22.75;15.00;;;;;5.65;82.66;103879.31;5049950;28;47706;-72
2022/01/13 11:38:25;;;;;;;;;27.75;23.00;;;;;5.69;82.78;103870.75;5067583;28;45297;-72
2022/01/13 11:40:53;;;;;;;;;45.50;39.75;;;;;5.68;82.58;103868.94;5052338;28;45367;-73
2022/01/13 11:43:28;;;;;;;;;32.50;22.00;;;;;5.68;82.12;103866.34;5047929;28;46051;-73